Time;durP1;ratioP1;P1;durP2;ratioP2;P2;SDS_P1;SDS_P2;PMS_P1;PMS_P2;Temp;Humidity;BMP_temperature;BMP_pressure;BME280_temperature;BME280_humidity;BME280_pressure;Samples;Min_cycle;Max_cycle;Signal;HPM_P1;HPM_P2
2023/01/24 00:01:26;;;;;;;;;;;;;;;26.12;52.52;98144.27;624802;227;62827;-64
2023/01/24 00:03:53;;;;;;;;;;;;;;;26.13;51.03;98153.16;624771;227;65154;-64
2023/01/24 00:06:21;;;;;;;;;;;;;;;26.13;51.72;98153.16;624863;227;65187;-64
2023/01/24 00:08:48;;;;;;;;;;;;;;;26.10;50.94;98154.52;624748;227;62907;-64
2023/01/24 00:11:16;;;;;;;;;;;;;;;26.11;51.64;98166.12;624778;227;67313;-64
2023/01/24 00:13:43;;;;;;;;;;;;;;;26.10;51.61;98165.28;624800;227;64812;-64
2023/01/24 00:16:12;;;;;;;;;;;;;;;26.08;51.46;98164.78;624783;227;62882;-64
2023/01/24 00:18:40;;;;;;;;;;;;;;;26.09;51.60;98168.27;624584;226;67011;-64
2023/01/24 00:21:11;;;;;;;;;;;;;;;26.08;52.40;98169.34;624818;227;66793;-64
2023/01/24 00:23:40;;;;;;;;;;;;;;;26.06;51.72;98169.63;624671;226;64893;-64
2023/01/24 00:26:08;;;;;;;;;;;;;;;26.06;52.33;98172.33;624479;226;67197;-64
2023/01/24 00:28:36;;;;;;;;;;;;;;;26.06;52.38;98168.83;624773;227;67189;-64
2023/01/24 00:31:05;;;;;;;;;;;;;;;26.05;52.80;98168.00;624784;227;65693;-64
2023/01/24 00:33:33;;;;;;;;;;;;;;;26.04;51.79;98170.98;624835;227;67213;-64
2023/01/24 00:36:00;;;;;;;;;;;;;;;26.03;51.85;98170.19;624757;227;67042;-64
2023/01/24 00:38:28;;;;;;;;;;;;;;;26.03;52.54;98169.39;624766;227;64881;-66
2023/01/24 00:40:57;;;;;;;;;;;;;;;26.02;52.43;98178.53;624748;226;64623;-66
2023/01/24 00:43:26;;;;;;;;;;;;;;;26.01;52.47;98169.65;624804;227;64558;-66
2023/01/24 00:45:54;;;;;;;;;;;;;;;26.00;51.92;98181.52;624884;227;65665;-66
2023/01/24 00:48:22;;;;;;;;;;;;;;;26.00;52.58;98172.61;624790;227;64325;-66
2023/01/24 00:50:50;;;;;;;;;;;;;;;25.99;52.16;98171.80;624764;227;64379;-66
2023/01/24 00:53:19;;;;;;;;;;;;;;;25.98;52.73;98172.90;624765;227;64847;-66
2023/01/24 00:55:47;;;;;;;;;;;;;;;25.97;51.34;98170.47;624803;227;67031;-64
2023/01/24 00:58:15;;;;;;;;;;;;;;;25.98;50.82;98166.71;624841;227;66802;-64
2023/01/24 01:00:42;;;;;;;;;;;;;;;25.96;52.82;98166.97;624807;227;65044;-64
2023/01/24 01:03:11;;;;;;;;;;;;;;;25.96;52.08;98163.48;624780;227;66711;-64
2023/01/24 01:05:39;;;;;;;;;;;;;;;25.95;53.15;98162.68;624735;226;66770;-64
2023/01/24 01:08:07;;;;;;;;;;;;;;;25.94;51.55;98155.66;624778;227;62638;-64
2023/01/24 01:10:36;;;;;;;;;;;;;;;25.93;50.53;98164.84;624800;227;68019;-64
2023/01/24 01:13:04;;;;;;;;;;;;;;;25.93;52.44;98161.34;624820;227;66887;-64
2023/01/24 01:15:32;;;;;;;;;;;;;;;25.91;52.74;98159.71;624720;227;62939;-64
2023/01/24 01:17:59;;;;;;;;;;;;;;;25.91;53.47;98166.98;621215;227;66425;-64
2023/01/24 01:20:27;;;;;;;;;;;;;;;25.90;52.15;98176.16;624775;227;65452;-64
2023/01/24 01:22:55;;;;;;;;;;;;;;;25.89;51.19;98172.67;624769;227;64898;-64
2023/01/24 01:25:22;;;;;;;;;;;;;;;25.88;50.88;98168.34;624838;227;65798;-64
2023/01/24 01:27:50;;;;;;;;;;;;;;;25.88;52.85;98162.95;624781;227;65768;-64
2023/01/24 01:30:17;;;;;;;;;;;;;;;25.86;53.57;98162.45;624739;227;62924;-64
2023/01/24 01:32:45;;;;;;;;;;;;;;;25.86;52.70;98170.53;624768;227;65025;-64
2023/01/24 01:35:13;;;;;;;;;;;;;;;25.86;53.13;98170.53;624799;227;66790;-64
2023/01/24 01:37:40;;;;;;;;;;;;;;;25.85;51.80;98170.79;624842;227;62671;-64
2023/01/24 01:40:09;;;;;;;;;;;;;;;25.83;51.46;98165.66;625468;226;67581;-64
2023/01/24 01:42:47;;;;;;;;;;;;;;;25.82;51.74;98164.03;625866;226;67233;-64
2023/01/24 01:45:31;;;;;;;;;;;;;;;25.82;52.25;98161.34;618387;226;62640;-64
2023/01/24 01:48:00;;;;;;;;;;;;;;;25.82;50.70;98169.42;625922;226;65136;-63
2023/01/24 01:50:29;;;;;;;;;;;;;;;25.81;51.36;98167.81;625907;226;66867;-63
2023/01/24 01:52:57;;;;;;;;;;;;;;;25.80;52.79;98171.57;625956;226;65201;-63
2023/01/24 01:55:26;;;;;;;;;;;;;;;25.80;52.20;98166.19;625895;226;67107;-63
2023/01/24 01:57:55;;;;;;;;;;;;;;;25.78;51.17;98167.54;625871;226;66792;-63
2023/01/24 02:00:24;;;;;;;;;;;;;;;25.78;52.07;98173.76;625962;226;65057;-63
2023/01/24 02:03:47;;;;;;;;;;;;;;;25.77;52.22;98174.02;625905;226;65121;-64
2023/01/24 02:05:31;;;;;;;;;;;;;;;25.76;50.96;98173.22;618145;226;64388;-64
2023/01/24 02:08:01;;;;;;;;;;;;;;;25.75;51.29;98179.66;625948;226;63826;-64
2023/01/24 02:13:13;;;;;;;;;;;;;;;25.73;51.49;98181.84;625943;226;64443;-64
2023/01/24 02:18:20;;;;;;;;;;;;;;;25.72;52.60;98180.22;615063;226;66774;-64
2023/01/24 02:20:49;;;;;;;;;;;;;;;25.71;51.95;98184.00;625939;226;67553;-64
2023/01/24 02:23:24;;;;;;;;;;;;;;;25.70;51.41;98177.02;625993;226;62597;-64
2023/01/24 02:26:12;;;;;;;;;;;;;;;25.70;51.01;98179.70;625929;226;66733;-64
2023/01/24 02:28:42;;;;;;;;;;;;;;;25.69;51.12;98180.77;625802;226;67636;-64
2023/01/24 02:31:09;;;;;;;;;;;;;;;25.68;50.97;98187.23;625956;226;65028;-64
2023/01/24 02:33:37;;;;;;;;;;;;;;;25.67;51.40;98178.36;625934;226;64249;-64
2023/01/24 02:36:23;;;;;;;;;;;;;;;25.67;52.38;98193.69;625964;226;66905;-64
2023/01/24 02:38:52;;;;;;;;;;;;;;;25.66;51.54;98189.39;625760;226;62582;-64
2023/01/24 02:41:23;;;;;;;;;;;;;;;25.64;51.04;98191.55;624874;227;67269;-64
2023/01/24 02:43:52;;;;;;;;;;;;;;;25.64;51.50;98188.85;624813;227;65542;-64
2023/01/24 02:46:19;;;;;;;;;;;;;;;25.63;52.42;98188.05;624822;227;65051;-64
2023/01/24 02:48:48;;;;;;;;;;;;;;;25.63;51.41;98195.33;624822;227;66968;-64
2023/01/24 02:54:01;;;;;;;;;;;;;;;25.61;51.90;98194.78;624827;227;62652;-64
2023/01/24 02:59:15;;;;;;;;;;;;;;;25.60;51.82;98193.98;624794;227;64457;-64
2023/01/24 03:01:43;;;;;;;;;;;;;;;25.59;51.43;98191.55;624816;227;65435;-64
2023/01/24 03:04:11;;;;;;;;;;;;;;;25.59;51.83;98191.55;624807;227;66790;-64
2023/01/24 03:06:39;;;;;;;;;;;;;;;25.57;51.98;98186.45;624814;227;66654;-64
2023/01/24 03:09:18;;;;;;;;;;;;;;;25.56;51.81;98184.02;624860;227;65897;-64
2023/01/24 03:11:37;;;;;;;;;;;;;;;25.57;52.62;98182.97;624611;226;67291;-64
2023/01/24 03:36:19;;;;;;;;;;;;;;;25.46;52.26;98174.91;624843;227;64255;-62
2023/01/24 03:41:29;;;;;;;;;;;;;;;25.46;51.89;98177.59;625927;226;66056;-63
2023/01/24 03:43:56;;;;;;;;;;;;;;;25.44;52.41;98168.17;625994;226;67418;-63
2023/01/24 03:46:25;;;;;;;;;;;;;;;25.44;51.70;98170.88;625963;226;64216;-63
2023/01/24 03:48:53;;;;;;;;;;;;;;;25.41;52.28;98172.22;625963;226;63775;-63
2023/01/24 03:54:08;;;;;;;;;;;;;;;25.42;52.79;98171.13;625939;226;67450;-65
2023/01/24 03:56:40;;;;;;;;;;;;;;;25.41;51.92;98177.59;623661;226;47324;-65
2023/01/24 03:59:08;;;;;;;;;;;;;;;25.41;52.24;98174.11;625965;226;66875;-65
2023/01/24 04:01:37;;;;;;;;;;;;;;;25.39;52.05;98179.75;625929;226;64220;-64
2023/01/24 04:04:12;;;;;;;;;;;;;;;25.38;52.40;98175.45;625204;226;44979;-66
2023/01/24 04:06:40;;;;;;;;;;;;;;;25.38;52.29;98182.73;626015;226;64307;-66
2023/01/24 04:09:09;;;;;;;;;;;;;;;25.38;52.43;98180.04;625937;226;67115;-66
2023/01/24 04:11:37;;;;;;;;;;;;;;;25.36;51.62;98177.60;625963;226;63003;-66
2023/01/24 04:14:06;;;;;;;;;;;;;;;25.36;52.47;98176.80;625831;226;48664;-66
2023/01/24 04:16:34;;;;;;;;;;;;;;;25.36;52.27;98188.37;625920;226;67184;-67
2023/01/24 04:19:04;;;;;;;;;;;;;;;25.35;52.05;98181.38;625776;226;43960;-67
2023/01/24 04:21:31;;;;;;;;;;;;;;;25.34;52.44;98179.75;625847;226;66847;-67
2023/01/24 04:23:59;;;;;;;;;;;;;;;25.33;52.90;98186.22;625913;226;64312;-67
2023/01/24 04:26:27;;;;;;;;;;;;;;;25.32;52.73;98184.63;625847;226;65764;-67
2023/01/24 04:28:55;;;;;;;;;;;;;;;25.32;52.22;98171.17;625929;226;67391;-67
2023/01/24 04:31:23;;;;;;;;;;;;;;;25.32;52.59;98173.03;625909;226;66717;-67
2023/01/24 04:33:55;;;;;;;;;;;;;;;25.32;51.55;98173.03;624991;226;46199;-67
2023/01/24 04:36:23;;;;;;;;;;;;;;;25.29;51.71;98173.57;625890;226;64068;-67
2023/01/24 04:38:50;;;;;;;;;;;;;;;25.28;53.13;98178.16;625749;226;64355;-67
2023/01/24 04:41:22;;;;;;;;;;;;;;;25.29;52.47;98178.95;621552;226;42090;-67
2023/01/24 04:43:50;;;;;;;;;;;;;;;25.28;52.86;98178.16;623374;227;64950;-65
2023/01/24 04:46:18;;;;;;;;;;;;;;;25.27;53.21;98173.86;624592;227;66766;-64
2023/01/24 04:48:55;;;;;;;;;;;;;;;25.26;52.69;98182.98;623493;227;65640;-64
2023/01/24 04:51:24;;;;;;;;;;;;;;;25.24;53.43;98177.90;624396;226;45344;-64
2023/01/24 04:53:52;;;;;;;;;;;;;;;25.23;52.13;98181.64;624546;227;67169;-64
2023/01/24 04:56:21;;;;;;;;;;;;;;;25.23;51.90;98186.22;624812;226;43863;-64
2023/01/24 04:58:49;;;;;;;;;;;;;;;25.23;52.93;98184.34;624859;227;67381;-64
2023/01/24 05:01:17;;;;;;;;;;;;;;;25.22;52.27;98181.94;624855;227;64999;-64
2023/01/24 05:03:58;;;;;;;;;;;;;;;25.21;52.69;98191.89;624360;226;44996;-64
2023/01/24 05:06:22;;;;;;;;;;;;;;;25.20;52.20;98197.53;624671;226;66837;-64
2023/01/24 05:08:49;;;;;;;;;;;;;;;25.21;53.59;98199.16;624790;227;66607;-64
2023/01/24 05:11:19;;;;;;;;;;;;;;;25.19;51.64;98207.48;624815;227;65034;-64
2023/01/24 05:13:48;;;;;;;;;;;;;;;25.18;52.39;98207.74;624853;227;67126;-64
2023/01/24 05:16:16;;;;;;;;;;;;;;;25.18;53.45;98205.05;624823;227;66361;-64
2023/01/24 05:18:44;;;;;;;;;;;;;;;25.18;53.08;98218.50;624829;227;62388;-64
2023/01/24 05:21:14;;;;;;;;;;;;;;;25.17;52.82;98214.21;624806;227;67111;-64
2023/01/24 05:23:42;;;;;;;;;;;;;;;25.17;52.75;98216.91;624814;227;67016;-64
2023/01/24 05:26:11;;;;;;;;;;;;;;;25.16;51.92;98207.23;624607;226;65173;-64
2023/01/24 05:28:40;;;;;;;;;;;;;;;25.16;52.19;98215.30;624862;227;64295;-64
2023/01/24 05:31:08;;;;;;;;;;;;;;;25.16;53.07;98220.68;624754;227;67748;-64
2023/01/24 05:33:36;;;;;;;;;;;;;;;25.15;52.51;98219.05;624817;227;63864;-64
2023/01/24 05:36:05;;;;;;;;;;;;;;;25.16;51.25;98223.38;624740;227;67410;-64
2023/01/24 05:38:34;;;;;;;;;;;;;;;25.16;54.02;98232.23;624827;226;45052;-64
2023/01/24 05:41:03;;;;;;;;;;;;;;;25.15;52.40;98221.73;625976;226;64907;-64
2023/01/24 05:43:32;;;;;;;;;;;;;;;25.15;52.82;98216.36;625893;226;67448;-64
2023/01/24 05:46:02;;;;;;;;;;;;;;;25.16;51.95;98228.75;625744;226;45900;-64
2023/01/24 05:48:31;;;;;;;;;;;;;;;25.15;52.28;98224.42;625946;226;43878;-64
2023/01/24 05:51:03;;;;;;;;;;;;;;;25.15;51.49;98233.30;625959;226;66635;-64
2023/01/24 05:53:32;;;;;;;;;;;;;;;25.16;52.54;98228.75;625949;226;67023;-64
2023/01/24 05:56:01;;;;;;;;;;;;;;;25.16;52.78;98239.51;625957;226;63010;-64
2023/01/24 05:58:30;;;;;;;;;;;;;;;25.16;52.52;98244.89;625748;226;64475;-64
2023/01/24 06:01:00;;;;;;;;;;;;;;;25.16;52.10;98245.69;625757;226;47881;-64
2023/01/24 06:03:32;;;;;;;;;;;;;;;25.17;52.10;98243.80;625448;226;46803;-64
2023/01/24 06:05:59;;;;;;;;;;;;;;;25.17;52.46;98241.91;625976;226;67405;-64
2023/01/24 06:08:28;;;;;;;;;;;;;;;25.18;51.69;98240.02;626007;226;64324;-64
2023/01/24 06:10:56;;;;;;;;;;;;;;;25.20;52.58;98245.95;625955;226;63525;-64
2023/01/24 06:13:23;;;;;;;;;;;;;;;25.20;53.50;98254.02;625935;226;68033;-64
2023/01/24 06:15:52;;;;;;;;;;;;;;;25.20;52.00;98251.33;625899;226;67407;-64
2023/01/24 06:18:20;;;;;;;;;;;;;;;25.21;51.67;98250.28;625925;226;63586;-64
2023/01/24 06:20:50;;;;;;;;;;;;;;;25.22;52.28;98252.68;625916;226;67145;-64
2023/01/24 06:23:22;;;;;;;;;;;;;;;25.24;52.63;98260.50;625988;226;67022;-64
2023/01/24 06:25:49;;;;;;;;;;;;;;;25.23;52.21;98254.28;625901;226;68028;-64
2023/01/24 06:28:17;;;;;;;;;;;;;;;25.25;52.10;98260.21;625922;226;64991;-64
2023/01/24 06:30:46;;;;;;;;;;;;;;;25.25;52.77;98256.72;625946;226;67087;-64
2023/01/24 06:33:15;;;;;;;;;;;;;;;25.25;52.49;98256.72;625955;226;63010;-64
2023/01/24 06:36:02;;;;;;;;;;;;;;;25.26;52.74;98255.63;625963;226;64893;-64
2023/01/24 06:38:30;;;;;;;;;;;;;;;25.28;53.51;98247.30;625974;226;64713;-63
2023/01/24 06:40:59;;;;;;;;;;;;;;;25.28;51.88;98258.87;624774;226;62917;-63
2023/01/24 06:43:27;;;;;;;;;;;;;;;25.30;51.59;98261.30;624788;227;67202;-64
2023/01/24 06:45:55;;;;;;;;;;;;;;;25.29;53.25;98263.19;624777;227;67395;-64
2023/01/24 06:48:23;;;;;;;;;;;;;;;25.28;53.50;98269.63;624795;227;65136;-64
2023/01/24 06:50:50;;;;;;;;;;;;;;;25.29;53.53;98265.88;624819;227;67309;-64
2023/01/24 06:53:18;;;;;;;;;;;;;;;25.31;53.12;98269.09;624244;227;66876;-64
2023/01/24 06:55:46;;;;;;;;;;;;;;;25.30;52.90;98272.87;624755;227;65025;-64
2023/01/24 06:58:13;;;;;;;;;;;;;;;25.31;51.76;98273.67;624775;227;67156;-64
2023/01/24 07:00:41;;;;;;;;;;;;;;;25.30;52.59;98270.17;622556;227;65858;-63
2023/01/24 07:03:09;;;;;;;;;;;;;;;25.30;51.50;98280.94;617683;229;65218;-64
2023/01/24 07:05:37;;;;;;;;;;;;;;;25.30;50.95;98280.14;617634;229;65596;-64
2023/01/24 07:08:06;;;;;;;;;;;;;;;25.29;50.98;98279.34;617545;229;64936;-64
2023/01/24 07:10:35;;;;;;;;;;;;;;;25.30;51.70;98285.52;617418;228;64985;-65
2023/01/24 07:13:02;;;;;;;;;;;;;;;25.30;51.27;98297.08;617631;229;67459;-68
2023/01/24 07:15:30;;;;;;;;;;;;;;;25.30;50.54;98297.08;617623;229;66851;-67
2023/01/24 07:17:59;;;;;;;;;;;;;;;25.32;50.47;98303.02;617575;229;64977;-66
2023/01/24 07:20:26;;;;;;;;;;;;;;;25.35;51.33;98307.05;617458;228;67316;-66
2023/01/24 07:22:55;;;;;;;;;;;;;;;25.36;50.90;98303.27;617623;229;67119;-66
2023/01/24 07:25:24;;;;;;;;;;;;;;;25.37;51.42;98311.09;617647;229;63795;-66
2023/01/24 07:27:52;;;;;;;;;;;;;;;25.39;52.36;98314.30;617616;229;64924;-66
2023/01/24 07:30:19;;;;;;;;;;;;;;;25.40;52.28;98318.63;617684;229;67065;-64
2023/01/24 07:32:47;;;;;;;;;;;;;;;25.41;50.77;98317.53;617611;229;64945;-64
2023/01/24 07:35:14;;;;;;;;;;;;;;;25.42;52.43;98329.91;617580;229;67231;-65
2023/01/24 07:37:45;;;;;;;;;;;;;;;25.43;50.24;98323.47;617630;229;66982;-67
2023/01/24 07:40:12;;;;;;;;;;;;;;;25.43;50.54;98323.47;618368;229;64931;-63
2023/01/24 07:42:44;;;;;;;;;;;;;;;25.44;51.32;98327.77;618808;229;47227;-64
2023/01/24 07:45:14;;;;;;;;;;;;;;;25.46;50.83;98332.89;618538;229;44202;-63
2023/01/24 07:47:45;;;;;;;;;;;;;;;25.46;50.05;98333.69;611785;229;45290;-63
2023/01/24 07:50:15;;;;;;;;;;;;;;;25.48;49.87;98338.79;618493;229;67925;-64
2023/01/24 07:52:47;;;;;;;;;;;;;;;25.49;46.71;98343.11;618781;229;47881;-63
2023/01/24 07:55:14;;;;;;;;;;;;;;;25.51;50.11;98337.45;618750;228;65000;-63
2023/01/24 07:57:46;;;;;;;;;;;;;;;25.50;50.07;98350.10;611432;229;44373;-63
2023/01/24 08:00:15;;;;;;;;;;;;;;;25.51;49.88;98351.73;618733;229;67224;-63
2023/01/24 08:02:46;;;;;;;;;;;;;;;25.52;51.80;98363.30;618723;229;46302;-63
2023/01/24 08:05:16;;;;;;;;;;;;;;;25.54;50.43;98366.55;618718;229;64824;-63
2023/01/24 08:07:47;;;;;;;;;;;;;;;25.53;49.60;98362.22;611794;229;46827;-64
2023/01/24 08:10:16;;;;;;;;;;;;;;;25.55;49.69;98368.15;618497;229;43898;-63
2023/01/24 08:12:47;;;;;;;;;;;;;;;25.56;49.04;98375.94;618730;229;67296;-64
2023/01/24 08:15:22;;;;;;;;;;;;;;;25.59;49.74;98369.22;618581;229;48015;-63
2023/01/24 08:17:49;;;;;;;;;;;;;;;25.58;49.05;98370.30;618720;229;62943;-63
2023/01/24 08:20:16;;;;;;;;;;;;;;;25.58;43.25;98372.99;618717;229;64562;-62
2023/01/24 08:22:46;;;;;;;;;;;;;;;25.62;47.30;98374.89;618724;229;49657;-64
2023/01/24 08:25:17;;;;;;;;;;;;;;;25.67;43.81;98371.38;611594;229;44736;-63
2023/01/24 08:27:46;;;;;;;;;;;;;;;25.65;49.64;98362.78;618753;229;67665;-63
2023/01/24 08:30:16;;;;;;;;;;;;;;;25.62;50.66;98361.43;618679;229;68141;-66
2023/01/24 08:32:45;;;;;;;;;;;;;;;25.61;50.65;98361.69;618644;229;65108;-66
2023/01/24 08:35:20;;;;;;;;;;;;;;;25.60;50.42;98360.08;617458;229;48849;-67
2023/01/24 08:37:49;;;;;;;;;;;;;;;25.59;50.97;98371.91;618868;228;48110;-68
2023/01/24 08:40:19;;;;;;;;;;;;;;;25.59;51.33;98363.83;616264;229;64888;-65
2023/01/24 08:42:46;;;;;;;;;;;;;;;25.58;52.05;98365.72;609283;230;68694;-67
2023/01/24 08:45:18;;;;;;;;;;;;;;;25.59;50.43;98363.83;615369;230;66863;-66
2023/01/24 08:47:47;;;;;;;;;;;;;;;25.59;50.66;98364.66;609235;230;65039;-68
2023/01/24 08:50:16;;;;;;;;;;;;;;;25.58;50.82;98363.03;615202;230;67068;-67
2023/01/24 08:52:43;;;;;;;;;;;;;;;25.59;50.23;98363.83;615345;230;67002;-64
2023/01/24 08:55:11;;;;;;;;;;;;;;;25.59;50.46;98369.22;615310;230;65185;-66
2023/01/24 08:57:38;;;;;;;;;;;;;;;25.59;49.11;98363.83;615354;230;67199;-65
2023/01/24 09:00:06;;;;;;;;;;;;;;;25.60;50.96;98365.47;615283;230;64777;-66
2023/01/24 09:02:40;;;;;;;;;;;;;;;25.60;51.37;98370.84;615311;230;62990;-66
2023/01/24 09:05:07;;;;;;;;;;;;;;;25.61;51.20;98367.07;615258;230;49868;-65
2023/01/24 09:07:41;;;;;;;;;;;;;;;25.61;51.49;98367.07;615377;230;66476;-66
2023/01/24 09:10:05;;;;;;;;;;;;;;;25.61;51.67;98361.69;615059;230;65071;-65
2023/01/24 09:12:32;;;;;;;;;;;;;;;25.63;51.54;98370.31;615341;230;64819;-65
2023/01/24 09:15:00;;;;;;;;;;;;;;;25.63;50.60;98367.62;615320;230;67206;-65
2023/01/24 09:17:27;;;;;;;;;;;;;;;25.64;50.29;98369.22;615390;230;64886;-67
2023/01/24 09:19:55;;;;;;;;;;;;;;;25.64;50.87;98371.91;615346;230;67041;-64
2023/01/24 09:22:22;;;;;;;;;;;;;;;25.64;51.39;98363.84;615332;230;66889;-64
2023/01/24 09:24:50;;;;;;;;;;;;;;;25.63;51.35;98364.92;615299;230;65042;-64
2023/01/24 09:27:17;;;;;;;;;;;;;;;25.62;49.75;98363.32;615303;230;66974;-63
2023/01/24 09:29:45;;;;;;;;;;;;;;;25.60;50.95;98368.16;615306;230;64850;-64
2023/01/24 09:32:13;;;;;;;;;;;;;;;25.59;49.95;98361.97;615386;230;65113;-64
2023/01/24 09:34:46;;;;;;;;;;;;;;;25.60;49.86;98362.77;615343;230;66896;-64
2023/01/24 09:37:11;;;;;;;;;;;;;;;25.60;51.18;98362.77;615180;230;64796;-64
2023/01/24 09:39:38;;;;;;;;;;;;;;;25.59;50.68;98361.97;615295;229;63036;-64
2023/01/24 09:42:08;;;;;;;;;;;;;;;25.60;51.36;98360.08;615381;230;67424;-64
2023/01/24 09:44:37;;;;;;;;;;;;;;;25.59;50.34;98356.59;615387;230;67139;-63
2023/01/24 09:47:06;;;;;;;;;;;;;;;25.59;52.33;98364.66;615384;230;65024;-64
2023/01/24 09:49:41;;;;;;;;;;;;;;;25.60;51.34;98363.58;615075;230;67173;-64
2023/01/24 09:52:10;;;;;;;;;;;;;;;25.59;52.10;98359.28;615265;230;67729;-64
2023/01/24 09:54:42;;;;;;;;;;;;;;;25.60;51.09;98354.70;615325;230;63030;-64
2023/01/24 09:57:11;;;;;;;;;;;;;;;25.60;51.95;98352.00;611801;229;64977;-64
2023/01/24 09:59:43;;;;;;;;;;;;;;;25.59;51.49;98356.59;614489;230;64137;-64
2023/01/24 10:02:18;;;;;;;;;;;;;;;25.59;52.04;98353.06;615327;230;62503;-63
2023/01/24 10:04:46;;;;;;;;;;;;;;;25.61;51.88;98350.92;615291;230;67209;-64
2023/01/24 10:07:32;;;;;;;;;;;;;;;25.62;52.23;98349.86;615418;230;46691;-64
2023/01/24 10:10:09;;;;;;;;;;;;;;;25.61;51.45;98351.72;615364;230;63005;-64
2023/01/24 10:12:46;;;;;;;;;;;;;;;25.62;52.29;98347.97;615300;230;64856;-63
2023/01/24 10:15:32;;;;;;;;;;;;;;;25.63;51.47;98348.77;615382;230;64971;-63
2023/01/24 10:18:19;;;;;;;;;;;;;;;25.63;52.37;98340.70;615425;230;65257;-64
2023/01/24 10:20:57;;;;;;;;;;;;;;;25.63;51.66;98346.88;615041;230;65020;-64
2023/01/24 10:23:29;;;;;;;;;;;;;;;25.64;51.42;98342.30;615350;230;66876;-63
2023/01/24 10:26:01;;;;;;;;;;;;;;;25.65;51.69;98338.55;615362;230;65367;-64
2023/01/24 10:28:30;;;;;;;;;;;;;;;25.66;52.51;98342.84;615252;230;67223;-64
2023/01/24 10:30:59;;;;;;;;;;;;;;;25.66;52.09;98338.27;615265;230;67321;-66
2023/01/24 10:33:34;;;;;;;;;;;;;;;25.67;50.93;98330.98;615287;230;64967;-64
2023/01/24 10:36:03;;;;;;;;;;;;;;;25.68;51.20;98329.93;615337;228;67236;-65
2023/01/24 10:38:33;;;;;;;;;;;;;;;25.69;50.44;98326.15;615210;230;46650;-64
2023/01/24 10:41:17;;;;;;;;;;;;;;;25.71;51.66;98324.00;612444;231;65013;-64
2023/01/24 10:43:46;;;;;;;;;;;;;;;25.72;49.84;98312.14;612522;231;67132;-64
2023/01/24 10:46:15;;;;;;;;;;;;;;;25.75;50.39;98310.80;612463;231;67050;-63
2023/01/24 10:48:44;;;;;;;;;;;;;;;25.75;51.06;98310.80;612465;231;65038;-64
2023/01/24 10:51:13;;;;;;;;;;;;;;;25.76;50.22;98309.73;612439;231;72519;-65
2023/01/24 10:53:41;;;;;;;;;;;;;;;25.76;50.75;98307.84;612443;231;65041;-63
2023/01/24 10:56:08;;;;;;;;;;;;;;;25.78;50.84;98304.86;612384;231;62970;-63
2023/01/24 10:58:38;;;;;;;;;;;;;;;25.78;50.93;98303.00;612495;231;65387;-63
2023/01/24 11:01:07;;;;;;;;;;;;;;;25.80;51.18;98306.21;611001;231;64863;-67
2023/01/24 11:03:35;;;;;;;;;;;;;;;25.80;50.70;98298.13;612495;231;65024;-64
2023/01/24 11:06:03;;;;;;;;;;;;;;;25.81;51.16;98294.37;612405;231;67061;-63
2023/01/24 11:08:35;;;;;;;;;;;;;;;25.84;49.89;98290.37;612468;231;67044;-64
2023/01/24 11:11:03;;;;;;;;;;;;;;;25.87;49.55;98287.93;612482;231;62932;-64
2023/01/24 11:13:35;;;;;;;;;;;;;;;25.89;49.56;98293.86;612497;231;65085;-64
2023/01/24 11:16:20;;;;;;;;;;;;;;;25.90;50.33;98290.08;612522;231;67032;-64
2023/01/24 11:18:54;;;;;;;;;;;;;;;25.94;49.99;98292.22;612595;231;45000;-64
2023/01/24 11:21:22;;;;;;;;;;;;;;;25.95;49.99;98289.27;612482;231;67190;-64
2023/01/24 11:24:03;;;;;;;;;;;;;;;25.97;50.11;98283.59;612438;231;66998;-64
2023/01/24 11:26:32;;;;;;;;;;;;;;;25.98;51.64;98285.22;604928;231;64926;-64
2023/01/24 11:29:07;;;;;;;;;;;;;;;26.00;50.86;98283.88;612505;231;67155;-64
2023/01/24 11:31:42;;;;;;;;;;;;;;;26.01;50.92;98277.39;612108;231;67069;-66
2023/01/24 11:34:28;;;;;;;;;;;;;;;26.02;50.46;98275.50;612513;231;65692;-64
2023/01/24 11:36:57;;;;;;;;;;;;;;;26.03;51.25;98266.36;612538;231;67063;-63
2023/01/24 11:39:36;;;;;;;;;;;;;;;26.04;51.50;98266.07;607508;229;66825;-63
2023/01/24 11:42:05;;;;;;;;;;;;;;;26.04;50.15;98268.77;618739;229;63057;-63
2023/01/24 11:44:34;;;;;;;;;;;;;;;26.07;49.74;98264.72;617306;229;65267;-65
2023/01/24 11:47:03;;;;;;;;;;;;;;;26.07;49.92;98264.72;618484;229;65245;-64
2023/01/24 11:49:32;;;;;;;;;;;;;;;26.09;49.14;98262.56;618512;229;65241;-64
2023/01/24 11:52:04;;;;;;;;;;;;;;;26.09;49.16;98267.95;618208;229;64896;-66
2023/01/24 11:54:36;;;;;;;;;;;;;;;26.09;50.23;98257.17;618680;229;67174;-63
2023/01/24 11:57:06;;;;;;;;;;;;;;;26.09;50.77;98259.87;618702;229;65140;-63
2023/01/24 11:59:35;;;;;;;;;;;;;;;26.10;49.74;98264.16;618236;229;67204;-63
2023/01/24 12:02:04;;;;;;;;;;;;;;;26.10;49.58;98267.66;618719;229;66964;-66
2023/01/24 12:04:50;;;;;;;;;;;;;;;26.10;50.34;98266.86;618742;229;62742;-65
2023/01/24 12:07:23;;;;;;;;;;;;;;;26.10;50.96;98259.58;618697;229;66861;-63
2023/01/24 12:09:58;;;;;;;;;;;;;;;26.11;49.93;98265.80;617815;229;67050;-64
2023/01/24 12:12:42;;;;;;;;;;;;;;;26.12;51.12;98259.31;618580;228;63012;-65
2023/01/24 12:15:11;;;;;;;;;;;;;;;26.11;50.50;98263.10;618720;229;67255;-63
2023/01/24 12:17:57;;;;;;;;;;;;;;;26.15;48.49;98266.84;618408;229;67186;-67
2023/01/24 12:20:26;;;;;;;;;;;;;;;26.18;50.25;98265.49;618618;229;65316;-64
2023/01/24 12:22:58;;;;;;;;;;;;;;;26.20;48.77;98266.83;618459;229;47064;-66
2023/01/24 12:25:30;;;;;;;;;;;;;;;26.19;43.63;98261.70;618738;229;66997;-65
2023/01/24 12:27:59;;;;;;;;;;;;;;;26.22;48.18;98264.68;618649;228;65025;-64
2023/01/24 12:30:42;;;;;;;;;;;;;;;26.20;44.49;98264.14;618758;228;48230;-64
2023/01/24 12:33:11;;;;;;;;;;;;;;;26.22;47.82;98267.38;618721;229;64827;-66
2023/01/24 12:35:41;;;;;;;;;;;;;;;26.24;47.44;98270.58;618607;229;65052;-65
2023/01/24 12:38:21;;;;;;;;;;;;;;;26.25;49.46;98263.33;611317;229;68740;-63
2023/01/24 12:40:53;;;;;;;;;;;;;;;26.25;48.39;98269.52;615591;229;67142;-64
2023/01/24 12:43:30;;;;;;;;;;;;;;;26.26;48.91;98263.03;615244;230;65127;-64
2023/01/24 12:46:02;;;;;;;;;;;;;;;26.29;49.86;98269.76;615287;230;64780;-64
2023/01/24 12:48:37;;;;;;;;;;;;;;;26.28;49.08;98268.96;615128;230;48176;-64
2023/01/24 12:51:27;;;;;;;;;;;;;;;26.29;49.71;98267.06;615110;230;46172;-65
2023/01/24 12:54:11;;;;;;;;;;;;;;;26.30;49.12;98266.80;615046;230;67250;-64
2023/01/24 12:56:59;;;;;;;;;;;;;;;26.31;49.49;98262.22;600637;236;47606;-65
2023/01/24 12:59:28;;;;;;;;;;;;;;;26.32;50.19;98275.39;612620;230;63062;-63
2023/01/24 13:02:15;;;;;;;;;;;;;;;26.32;47.83;98277.29;615301;230;47771;-65
2023/01/24 13:04:50;;;;;;;;;;;;;;;26.32;50.35;98275.39;614970;230;67372;-64
2023/01/24 13:07:21;;;;;;;;;;;;;;;26.31;50.20;98279.19;613981;230;65231;-65
2023/01/24 13:09:52;;;;;;;;;;;;;;;26.31;48.29;98273.80;615116;230;53368;-65
2023/01/24 13:12:24;;;;;;;;;;;;;;;26.31;49.97;98279.19;615184;230;67041;-65
2023/01/24 13:15:06;;;;;;;;;;;;;;;26.32;49.73;98285.37;615279;230;65275;-64
2023/01/24 13:17:55;;;;;;;;;;;;;;;26.33;50.46;98276.23;615227;230;47840;-64
2023/01/24 13:20:41;;;;;;;;;;;;;;;26.33;48.06;98287.81;614974;230;45846;-64
2023/01/24 13:23:26;;;;;;;;;;;;;;;26.34;49.78;98283.22;615029;230;46219;-65
2023/01/24 13:25:57;;;;;;;;;;;;;;;26.32;49.89;98288.88;614662;230;65234;-65
2023/01/24 13:28:48;;;;;;;;;;;;;;;26.31;49.03;98289.16;614482;229;48996;-64
2023/01/24 13:31:27;;;;;;;;;;;;;;;26.29;49.68;98292.12;615132;230;65266;-64
2023/01/24 13:33:59;;;;;;;;;;;;;;;26.29;49.68;98285.93;615298;228;49238;-65
2023/01/24 13:36:34;;;;;;;;;;;;;;;26.27;49.91;98297.00;615329;230;47790;-70
2023/01/24 13:39:07;;;;;;;;;;;;;;;26.27;49.46;98288.91;615968;229;65360;-65
2023/01/24 13:41:39;;;;;;;;;;;;;;;26.27;50.54;98291.61;618712;229;67935;-65
2023/01/24 13:44:20;;;;;;;;;;;;;;;26.27;48.61;98294.30;611544;229;64634;-63